createdAt,value
2022-10-24T00:01:44.718Z,16.60
2022-10-24T00:04:14.370Z,16.50
2022-10-24T00:06:42.732Z,16.50
2022-10-24T00:09:11.564Z,16.50
2022-10-24T00:11:42.701Z,16.40
2022-10-24T00:14:10.893Z,16.30
2022-10-24T00:16:39.077Z,16.30
2022-10-24T00:19:07.277Z,16.30
2022-10-24T00:21:36.805Z,16.20
2022-10-24T00:24:05.509Z,16.20
2022-10-24T00:26:34.118Z,16.10
2022-10-24T00:29:02.411Z,16.10
2022-10-24T00:31:31.162Z,16.10
2022-10-24T00:33:59.819Z,16.00
2022-10-24T00:36:29.082Z,15.90
2022-10-24T00:38:59.147Z,15.90
2022-10-24T00:41:30.299Z,15.90
2022-10-24T00:44:15.861Z,15.90
2022-10-24T00:46:47.467Z,15.90
2022-10-24T00:49:17.430Z,15.90
2022-10-24T00:51:49.857Z,16.00
2022-10-24T00:54:19.900Z,16.00
2022-10-24T00:56:57.695Z,16.00
2022-10-24T00:59:27.177Z,15.90
2022-10-24T01:01:55.858Z,15.90
2022-10-24T01:04:24.051Z,15.80
2022-10-24T01:07:04.622Z,15.70
2022-10-24T01:09:56.462Z,15.60
2022-10-24T01:12:38.022Z,15.60
2022-10-24T01:15:17.034Z,15.50
2022-10-24T01:17:56.473Z,15.40
2022-10-24T01:20:40.868Z,15.30
2022-10-24T01:23:24.626Z,15.30
2022-10-24T01:26:04.831Z,15.20
2022-10-24T01:28:39.077Z,15.20
2022-10-24T01:31:13.498Z,15.10
2022-10-24T01:33:49.933Z,15.10
2022-10-24T01:36:26.935Z,15.10
2022-10-24T01:38:58.876Z,15.10
2022-10-24T01:41:30.362Z,15.10
2022-10-24T01:44:05.748Z,15.20
2022-10-24T01:46:38.542Z,15.20
2022-10-24T01:49:10.636Z,15.20
2022-10-24T01:51:40.668Z,15.20
2022-10-24T01:54:10.576Z,15.20
2022-10-24T01:56:38.738Z,15.20
2022-10-24T01:59:08.181Z,15.20
2022-10-24T02:01:39.383Z,15.20
2022-10-24T02:04:12.068Z,15.30
2022-10-24T02:06:43.086Z,15.30
2022-10-24T02:09:16.730Z,15.30
2022-10-24T02:11:47.506Z,15.30
2022-10-24T02:14:19.439Z,15.30
2022-10-24T02:16:49.153Z,15.30
2022-10-24T02:19:18.346Z,15.30
2022-10-24T02:22:01.521Z,15.30
2022-10-24T02:24:33.045Z,15.20
2022-10-24T02:27:07.689Z,15.20
2022-10-24T02:29:41.233Z,15.20
2022-10-24T02:32:14.827Z,15.10
2022-10-24T02:34:44.989Z,15.10
2022-10-24T02:37:15.144Z,15.00
2022-10-24T02:39:45.327Z,15.00
2022-10-24T02:42:15.484Z,14.90
2022-10-24T02:44:47.044Z,14.90
2022-10-24T02:47:17.677Z,14.80
2022-10-24T02:49:46.139Z,14.80
2022-10-24T02:52:14.663Z,14.70
2022-10-24T02:54:42.873Z,14.70
2022-10-24T02:57:11.095Z,14.70
2022-10-24T02:59:39.173Z,14.60
2022-10-24T03:02:07.316Z,14.50
2022-10-24T03:04:36.872Z,14.40
2022-10-24T03:07:07.361Z,14.30
2022-10-24T03:09:36.032Z,14.10
2022-10-24T03:12:04.571Z,14.00
2022-10-24T03:14:32.702Z,14.00
2022-10-24T03:17:01.137Z,13.90
2022-10-24T03:19:29.274Z,13.90
2022-10-24T03:21:58.835Z,13.80
2022-10-24T03:24:37.244Z,13.80
2022-10-24T03:27:12.917Z,13.80
2022-10-24T03:29:41.007Z,13.70
2022-10-24T03:32:09.599Z,13.70
2022-10-24T03:34:37.913Z,13.70
2022-10-24T03:37:07.595Z,13.60
2022-10-24T03:39:35.753Z,13.60
2022-10-24T03:42:04.016Z,13.60
2022-10-24T03:44:32.173Z,13.50
2022-10-24T03:47:00.340Z,13.50
2022-10-24T03:49:28.534Z,13.50
2022-10-24T03:51:56.709Z,13.50
2022-10-24T03:54:26.497Z,13.40
2022-10-24T03:56:54.775Z,13.40
2022-10-24T03:59:23.023Z,13.40
2022-10-24T04:01:51.301Z,13.30
2022-10-24T04:04:19.520Z,13.30
2022-10-24T04:06:47.950Z,13.30
2022-10-24T04:09:16.184Z,13.30
2022-10-24T04:11:45.767Z,13.30
2022-10-24T04:14:13.996Z,13.30
2022-10-24T04:16:44.159Z,13.30
2022-10-24T04:19:12.469Z,13.30
2022-10-24T04:21:41.331Z,13.40
2022-10-24T04:24:09.553Z,13.40
2022-10-24T04:26:37.745Z,13.40
2022-10-24T04:29:07.566Z,13.50
2022-10-24T04:31:35.746Z,13.50
2022-10-24T04:34:05.208Z,13.50
2022-10-24T04:36:33.656Z,13.50
2022-10-24T04:39:01.876Z,13.40
2022-10-24T04:41:30.073Z,13.50
2022-10-24T04:43:58.204Z,13.40
2022-10-24T04:46:27.802Z,13.40
2022-10-24T04:48:56.009Z,13.40
2022-10-24T04:51:24.173Z,13.40
2022-10-24T04:53:52.699Z,13.40
2022-10-24T04:56:21.692Z,13.50
2022-10-24T04:58:49.988Z,13.50
2022-10-24T05:01:18.410Z,13.50
2022-10-24T05:08:19.949Z,13.60
2022-10-24T05:10:48.531Z,13.70
2022-10-24T05:13:16.845Z,13.70
2022-10-24T05:15:45.047Z,13.80
2022-10-24T05:18:13.410Z,13.90
2022-10-24T05:23:10.183Z,13.90
2022-10-24T05:25:39.922Z,14.00
2022-10-24T05:28:08.049Z,14.00
2022-10-24T05:30:36.205Z,14.00
2022-10-24T05:33:04.374Z,14.00
2022-10-24T05:35:32.541Z,14.00
2022-10-24T05:38:00.635Z,14.00
2022-10-24T05:40:28.930Z,14.00
2022-10-24T05:42:58.429Z,14.00
2022-10-24T05:45:26.646Z,14.00
2022-10-24T05:47:54.884Z,14.00
2022-10-24T05:50:23.070Z,14.00
2022-10-24T05:52:51.235Z,14.00
2022-10-24T05:55:19.525Z,14.00
2022-10-24T05:57:48.139Z,14.00
2022-10-24T06:00:19.300Z,14.00
2022-10-24T06:02:47.836Z,14.00
2022-10-24T06:05:16.645Z,14.00
2022-10-24T06:07:45.032Z,13.90
2022-10-24T06:10:14.317Z,13.90
2022-10-24T06:12:42.685Z,13.90
2022-10-24T06:15:13.143Z,13.90
2022-10-24T06:17:42.695Z,13.90
2022-10-24T06:20:11.772Z,13.90
2022-10-24T06:22:42.242Z,13.90
2022-10-24T06:25:11.105Z,14.00
2022-10-24T06:27:39.497Z,14.00
2022-10-24T06:30:10.147Z,14.10
2022-10-24T06:32:39.665Z,14.10
2022-10-24T06:35:14.751Z,14.20
2022-10-24T06:37:45.821Z,14.30
2022-10-24T06:40:16.835Z,14.30
2022-10-24T06:42:45.250Z,14.40
2022-10-24T06:45:14.302Z,14.50
2022-10-24T06:47:42.865Z,14.60
2022-10-24T06:50:12.683Z,14.70
2022-10-24T06:52:40.833Z,14.80
2022-10-24T06:55:09.890Z,14.80
2022-10-24T06:57:38.136Z,14.90
2022-10-24T07:00:08.955Z,15.00
2022-10-24T07:02:37.378Z,15.10
2022-10-24T07:05:08.783Z,15.20
2022-10-24T07:07:38.360Z,15.30
2022-10-24T07:10:07.456Z,15.30
2022-10-24T07:12:35.713Z,15.40
2022-10-24T07:15:04.366Z,15.50
2022-10-24T07:17:32.732Z,15.50
2022-10-24T07:20:00.931Z,15.50
2022-10-24T07:22:31.380Z,15.50
2022-10-24T07:25:02.620Z,15.50
2022-10-24T07:27:30.890Z,15.50
2022-10-24T07:30:03.035Z,15.50
2022-10-24T07:32:34.133Z,15.60
2022-10-24T07:35:02.292Z,15.60
2022-10-24T07:37:30.374Z,15.50
2022-10-24T07:39:58.514Z,15.20
2022-10-24T07:42:28.270Z,14.80
2022-10-24T07:44:56.461Z,14.60
2022-10-24T07:47:24.656Z,14.40
2022-10-24T07:49:52.812Z,14.20
2022-10-24T07:52:21.035Z,14.10
2022-10-24T07:54:49.160Z,13.90
2022-10-24T07:57:17.308Z,13.90
2022-10-24T07:59:47.066Z,13.90
2022-10-24T08:02:16.880Z,13.90
2022-10-24T08:04:45.372Z,13.90
2022-10-24T08:07:14.146Z,13.90
2022-10-24T08:09:43.819Z,13.80
2022-10-24T08:12:12.728Z,13.80
2022-10-24T08:14:42.109Z,13.80
2022-10-24T08:17:11.937Z,13.80
2022-10-24T08:19:43.714Z,13.80
2022-10-24T08:22:12.755Z,13.90
2022-10-24T08:25:09.702Z,13.90
2022-10-24T08:27:38.159Z,14.00
2022-10-24T08:30:07.404Z,14.00
2022-10-24T08:32:38.350Z,14.00
2022-10-24T08:35:07.031Z,14.10
2022-10-24T08:40:09.115Z,14.00
2022-10-24T08:42:37.711Z,14.00
2022-10-24T08:45:13.453Z,14.00
2022-10-24T08:47:47.439Z,14.00
2022-10-24T08:50:23.801Z,14.10
2022-10-24T08:52:57.932Z,14.20
2022-10-24T08:55:54.680Z,14.20
2022-10-24T08:58:27.527Z,14.30
2022-10-24T09:00:58.641Z,14.40
2022-10-24T09:06:25.473Z,14.60
2022-10-24T09:08:56.138Z,14.70
2022-10-24T09:11:32.446Z,14.90
2022-10-24T09:14:06.736Z,15.10
2022-10-24T09:16:36.917Z,15.10
2022-10-24T09:19:07.396Z,15.20
2022-10-24T09:21:35.683Z,15.10
2022-10-24T09:24:03.965Z,15.10
2022-10-24T09:26:34.096Z,15.10
2022-10-24T09:29:02.333Z,15.10
2022-10-24T09:31:30.653Z,15.10
2022-10-24T09:34:00.644Z,15.10
2022-10-24T09:36:31.966Z,15.10
2022-10-24T09:39:24.153Z,15.20
2022-10-24T09:41:52.532Z,15.20
2022-10-24T09:44:34.088Z,15.30
2022-10-24T09:47:29.258Z,15.30
2022-10-24T09:49:58.302Z,15.30
2022-10-24T09:52:32.014Z,15.40
2022-10-24T09:55:16.713Z,15.40
2022-10-24T09:57:45.817Z,15.30
2022-10-24T10:00:24.572Z,15.30
2022-10-24T10:02:59.770Z,15.30
2022-10-24T10:05:42.599Z,15.20
2022-10-24T10:08:17.425Z,15.30
2022-10-24T10:10:55.966Z,15.30
2022-10-24T10:13:26.960Z,15.30
2022-10-24T10:15:57.722Z,15.40
2022-10-24T10:18:28.771Z,15.50
2022-10-24T10:21:26.149Z,15.60
2022-10-24T10:23:57.713Z,15.60
2022-10-24T10:26:28.628Z,15.60
2022-10-24T10:29:07.734Z,15.60
2022-10-24T10:31:41.544Z,15.60
2022-10-24T10:34:20.434Z,15.60
2022-10-24T10:37:11.373Z,15.50
2022-10-24T10:39:58.590Z,15.50
2022-10-24T10:42:35.085Z,15.50
2022-10-24T10:45:16.109Z,15.50
2022-10-24T10:47:58.222Z,15.60
2022-10-24T10:50:37.692Z,15.70
2022-10-24T10:53:36.426Z,15.70
2022-10-24T10:56:15.764Z,15.80
2022-10-24T10:58:56.109Z,15.90
2022-10-24T11:01:33.118Z,16.00
2022-10-24T11:04:09.089Z,16.00
2022-10-24T11:06:46.398Z,16.00
2022-10-24T11:09:34.903Z,16.10
2022-10-24T11:12:10.681Z,16.10
2022-10-24T11:14:44.248Z,16.20
2022-10-24T11:17:16.904Z,16.20
2022-10-24T11:20:02.726Z,16.30
2022-10-24T11:22:37.555Z,16.30
2022-10-24T11:25:18.213Z,16.40
2022-10-24T11:27:53.537Z,16.40
2022-10-24T11:30:22.744Z,16.50
2022-10-24T11:32:56.217Z,16.60
2022-10-24T11:35:29.943Z,16.80
2022-10-24T11:38:03.071Z,16.90
2022-10-24T11:40:32.111Z,17.10
2022-10-24T11:43:12.025Z,17.20
2022-10-24T11:45:47.714Z,17.40
2022-10-24T11:48:20.618Z,17.50
2022-10-24T11:50:52.721Z,17.70
2022-10-24T11:53:45.780Z,17.80
2022-10-24T11:56:18.650Z,17.80
2022-10-24T11:58:57.273Z,17.90
2022-10-24T12:01:45.473Z,17.90
2022-10-24T12:04:48.850Z,18.00
2022-10-24T12:07:39.942Z,18.00
2022-10-24T12:10:33.067Z,18.00
2022-10-24T12:13:21.097Z,18.10
2022-10-24T12:16:00.298Z,18.10
2022-10-24T12:18:32.073Z,18.10
2022-10-24T12:21:06.177Z,18.10
2022-10-24T12:23:34.915Z,18.20
2022-10-24T12:26:05.887Z,18.10
2022-10-24T12:28:34.749Z,18.10
2022-10-24T12:31:14.019Z,18.10
2022-10-24T12:33:43.142Z,18.00
2022-10-24T12:36:12.015Z,17.90
2022-10-24T12:39:04.508Z,17.90
2022-10-24T12:41:58.897Z,18.10
2022-10-24T12:44:44.692Z,18.10
2022-10-24T12:47:34.929Z,18.10
2022-10-24T12:50:39.711Z,18.10
2022-10-24T12:53:59.080Z,18.10
2022-10-24T12:56:27.431Z,18.10
2022-10-24T12:59:01.853Z,18.10
2022-10-24T13:01:34.412Z,18.00
2022-10-24T13:07:48.336Z,17.70
2022-10-24T13:10:44.371Z,17.60
2022-10-24T13:13:32.810Z,17.40
2022-10-24T13:16:06.973Z,17.30
2022-10-24T13:18:50.989Z,17.20
2022-10-24T13:21:27.810Z,17.10
2022-10-24T13:24:12.566Z,17.00
2022-10-24T13:26:42.961Z,17.00
2022-10-24T13:29:15.496Z,16.90
2022-10-24T13:31:51.869Z,16.90
2022-10-24T13:34:31.266Z,16.80
2022-10-24T13:37:03.594Z,16.80
2022-10-24T13:39:40.320Z,16.70
2022-10-24T13:42:29.651Z,16.60
2022-10-24T13:45:01.816Z,16.60
2022-10-24T13:47:33.240Z,16.50
2022-10-24T13:50:07.330Z,16.50
2022-10-24T13:52:49.056Z,16.50
2022-10-24T13:55:27.709Z,16.40
2022-10-24T13:58:00.754Z,16.50
2022-10-24T14:00:31.857Z,16.50
2022-10-24T14:03:02.301Z,16.50
2022-10-24T14:05:37.244Z,16.60
2022-10-24T14:08:08.222Z,16.70
2022-10-24T14:10:39.354Z,16.70
2022-10-24T14:13:07.604Z,16.70
2022-10-24T14:15:35.842Z,16.80
2022-10-24T14:18:08.475Z,16.80
2022-10-24T14:20:38.051Z,16.80
2022-10-24T14:23:24.452Z,16.80
2022-10-24T14:25:59.086Z,16.80
2022-10-24T14:28:30.468Z,16.90
2022-10-24T14:31:01.301Z,16.90
2022-10-24T14:33:31.158Z,16.90
2022-10-24T14:36:02.759Z,16.90
2022-10-24T14:38:31.804Z,16.90
2022-10-24T14:41:09.087Z,17.00
2022-10-24T14:43:42.039Z,16.90
2022-10-24T14:46:30.506Z,16.90
2022-10-24T14:49:20.051Z,16.90
2022-10-24T14:51:49.933Z,16.90
2022-10-24T14:54:21.382Z,16.90
2022-10-24T14:56:53.545Z,16.90
2022-10-24T14:59:28.662Z,16.90
2022-10-24T15:01:59.155Z,16.90
2022-10-24T15:04:32.345Z,16.90
2022-10-24T15:07:14.814Z,16.80
2022-10-24T15:09:54.318Z,16.80
2022-10-24T15:12:29.167Z,16.80
2022-10-24T15:15:01.158Z,16.70
2022-10-24T15:17:32.917Z,16.60
2022-10-24T15:20:52.374Z,16.50
2022-10-24T15:23:46.945Z,16.50
2022-10-24T15:26:42.724Z,16.40
2022-10-24T15:29:21.047Z,16.30
2022-10-24T15:31:50.812Z,16.20
2022-10-24T15:34:20.383Z,16.20
2022-10-24T15:36:51.048Z,16.10
2022-10-24T15:39:21.141Z,16.10
2022-10-24T15:41:49.779Z,16.10
2022-10-24T15:44:21.893Z,16.00
2022-10-24T15:46:50.921Z,16.10
2022-10-24T15:49:19.316Z,16.00
2022-10-24T15:51:50.450Z,16.00
2022-10-24T15:54:21.275Z,16.00
2022-10-24T15:56:49.910Z,16.00
2022-10-24T15:59:26.834Z,15.90
2022-10-24T16:01:56.926Z,15.90
2022-10-24T16:04:25.579Z,15.80
2022-10-24T16:06:53.820Z,15.80
2022-10-24T16:10:40.604Z,15.70
2022-10-24T16:13:34.162Z,15.70
2022-10-24T16:16:03.634Z,15.60
2022-10-24T16:18:31.758Z,15.50
2022-10-24T16:21:00.472Z,15.50
2022-10-24T16:23:29.274Z,15.40
2022-10-24T16:25:57.444Z,15.30
2022-10-24T16:28:26.876Z,15.30
2022-10-24T16:30:55.070Z,15.10
2022-10-24T16:33:24.609Z,15.10
2022-10-24T16:35:52.885Z,15.10
2022-10-24T16:38:22.074Z,15.00
2022-10-24T16:41:16.711Z,14.90
2022-10-24T16:43:46.323Z,14.80
2022-10-24T16:46:18.977Z,14.80
2022-10-24T16:48:50.411Z,14.70
2022-10-24T16:51:21.382Z,14.60
2022-10-24T16:53:49.639Z,14.60
2022-10-24T16:56:53.206Z,14.60
2022-10-24T16:59:21.890Z,14.50
2022-10-24T17:01:51.188Z,14.50
2022-10-24T17:04:45.808Z,14.40
2022-10-24T17:07:15.468Z,14.40
2022-10-24T17:09:43.645Z,14.30
2022-10-24T17:12:11.872Z,14.30
2022-10-24T17:14:40.101Z,14.30
2022-10-24T17:17:08.312Z,14.40
2022-10-24T17:19:36.886Z,14.30
2022-10-24T17:22:06.630Z,14.30
2022-10-24T17:24:39.383Z,14.30
2022-10-24T17:27:11.612Z,14.30
2022-10-24T17:29:44.311Z,14.20
2022-10-24T17:32:15.025Z,14.10
2022-10-24T17:34:45.480Z,14.20
2022-10-24T17:37:21.281Z,14.10
2022-10-24T17:39:52.741Z,14.10
2022-10-24T17:42:21.374Z,14.10
2022-10-24T17:44:50.512Z,14.00
2022-10-24T17:47:18.842Z,14.00
2022-10-24T17:49:47.274Z,14.10
2022-10-24T17:52:22.320Z,14.00
2022-10-24T17:54:51.307Z,14.00
2022-10-24T17:57:19.989Z,14.00
2022-10-24T17:59:48.163Z,14.10
2022-10-24T18:02:16.550Z,14.10
2022-10-24T18:04:45.664Z,14.10
2022-10-24T18:07:14.030Z,14.10
2022-10-24T18:09:43.678Z,14.10
2022-10-24T18:12:11.868Z,14.10
2022-10-24T18:14:39.984Z,14.10
2022-10-24T18:17:08.133Z,14.10
2022-10-24T18:19:36.408Z,14.00
2022-10-24T18:22:04.664Z,14.00
2022-10-24T18:24:32.929Z,14.00
2022-10-24T18:27:02.567Z,14.00
2022-10-24T18:29:30.913Z,14.00
2022-10-24T18:31:59.150Z,14.00
2022-10-24T18:34:27.485Z,14.00
2022-10-24T18:36:55.722Z,14.00
2022-10-24T18:39:26.409Z,14.00
2022-10-24T18:42:02.113Z,13.90
2022-10-24T18:44:34.195Z,13.90
2022-10-24T18:47:04.592Z,13.80
2022-10-24T18:49:34.474Z,13.80
2022-10-24T18:52:14.562Z,13.80
2022-10-24T18:54:58.433Z,13.70
2022-10-24T18:57:32.015Z,13.70
2022-10-24T19:00:02.045Z,13.70
2022-10-24T19:02:37.232Z,13.70
2022-10-24T19:05:15.434Z,13.60
2022-10-24T19:07:44.422Z,13.60
2022-10-24T19:10:17.774Z,13.60
2022-10-24T19:12:46.468Z,13.50
2022-10-24T19:15:18.152Z,13.50
2022-10-24T19:17:47.975Z,13.50
2022-10-24T19:20:20.520Z,13.50
2022-10-24T19:22:48.874Z,13.50
2022-10-24T19:25:18.017Z,13.50
2022-10-24T19:27:46.376Z,13.50
2022-10-24T19:30:16.265Z,13.50
2022-10-24T19:32:44.661Z,13.40
2022-10-24T19:35:13.033Z,13.50
2022-10-24T19:37:41.882Z,13.40
2022-10-24T19:40:11.367Z,13.50
2022-10-24T19:42:39.586Z,13.50
2022-10-24T19:45:08.814Z,13.50
2022-10-24T19:47:38.652Z,13.50
2022-10-24T19:50:07.769Z,13.50
2022-10-24T19:52:36.199Z,13.50
2022-10-24T19:55:04.875Z,13.50
2022-10-24T19:57:32.972Z,13.50
2022-10-24T20:00:01.088Z,13.50
2022-10-24T20:02:29.118Z,13.60
2022-10-24T20:04:58.680Z,13.60
2022-10-24T20:07:26.851Z,13.50
2022-10-24T20:09:54.999Z,13.60
2022-10-24T20:12:23.372Z,13.50
2022-10-24T20:14:51.517Z,13.60
2022-10-24T20:17:19.645Z,13.60
2022-10-24T20:19:47.762Z,13.60
2022-10-24T20:22:17.327Z,13.60
2022-10-24T20:24:45.601Z,13.60
2022-10-24T20:27:13.877Z,13.60
2022-10-24T20:29:42.302Z,13.60
2022-10-24T20:32:10.648Z,13.60
2022-10-24T20:34:38.927Z,13.70
2022-10-24T20:37:07.670Z,13.70
2022-10-24T20:39:37.793Z,13.70
2022-10-24T20:42:06.393Z,13.70
2022-10-24T20:44:34.748Z,13.70
2022-10-24T20:47:03.128Z,13.70
2022-10-24T20:49:32.018Z,13.70
2022-10-24T20:52:00.540Z,13.80
2022-10-24T20:54:28.915Z,13.80
2022-10-24T20:56:59.021Z,13.90
2022-10-24T20:59:27.478Z,13.90
2022-10-24T21:01:55.936Z,13.90
2022-10-24T21:04:24.661Z,13.90
2022-10-24T21:06:53.276Z,13.90
2022-10-24T21:09:21.629Z,13.90
2022-10-24T21:11:50.142Z,14.00
2022-10-24T21:14:20.685Z,13.90
2022-10-24T21:16:49.401Z,13.90
2022-10-24T21:19:17.995Z,13.90
2022-10-24T21:21:46.313Z,13.90
2022-10-24T21:24:16.412Z,13.80
2022-10-24T21:26:45.161Z,13.70
2022-10-24T21:29:33.220Z,13.70
2022-10-24T21:32:03.285Z,13.70
2022-10-24T21:34:34.358Z,13.60
2022-10-24T21:37:04.254Z,13.60
2022-10-24T21:39:32.824Z,13.60
2022-10-24T21:42:01.149Z,13.60
2022-10-24T21:44:29.567Z,13.50
2022-10-24T21:46:58.153Z,13.50
2022-10-24T21:49:27.880Z,13.40
2022-10-24T21:51:56.269Z,13.40
2022-10-24T21:54:26.750Z,13.40
2022-10-24T21:56:55.517Z,13.40
2022-10-24T21:59:24.285Z,13.30
2022-10-24T22:01:53.721Z,13.20
2022-10-24T22:04:22.471Z,13.20
2022-10-24T22:06:52.357Z,13.10
2022-10-24T22:09:23.589Z,13.00
2022-10-24T22:11:54.457Z,13.00
2022-10-24T22:14:22.778Z,13.00
2022-10-24T22:16:51.401Z,12.90
2022-10-24T22:19:20.257Z,12.90
2022-10-24T22:21:50.340Z,12.80
2022-10-24T22:24:22.496Z,12.80
2022-10-24T22:26:51.682Z,12.80
2022-10-24T22:29:22.088Z,12.80
2022-10-24T22:31:51.165Z,12.90
2022-10-24T22:34:23.024Z,13.00
2022-10-24T22:37:06.141Z,13.00
2022-10-24T22:39:36.593Z,13.00
2022-10-24T22:42:07.340Z,13.00
2022-10-24T22:44:36.657Z,13.00
2022-10-24T22:47:44.931Z,13.00
2022-10-24T22:50:26.256Z,13.00
2022-10-24T22:52:55.106Z,13.00
2022-10-24T22:55:30.575Z,13.10
2022-10-24T22:57:59.405Z,13.10
2022-10-24T23:00:28.301Z,13.10
2022-10-24T23:03:02.362Z,13.20
2022-10-24T23:05:37.165Z,13.10
2022-10-24T23:08:07.230Z,13.10
2022-10-24T23:10:39.644Z,13.00
2022-10-24T23:13:09.414Z,13.00
2022-10-24T23:15:38.309Z,12.90
2022-10-24T23:18:07.214Z,12.90
2022-10-24T23:20:40.445Z,12.90
2022-10-24T23:23:17.135Z,12.90
2022-10-24T23:26:01.450Z,12.80
2022-10-24T23:28:40.336Z,12.80
2022-10-24T23:31:09.615Z,12.70
2022-10-24T23:33:38.299Z,12.60
2022-10-24T23:36:07.692Z,12.50
2022-10-24T23:38:36.714Z,12.40
2022-10-24T23:41:10.030Z,12.30
2022-10-24T23:43:38.969Z,12.20
2022-10-24T23:46:25.624Z,12.10
2022-10-24T23:49:10.934Z,12.10
2022-10-24T23:51:42.747Z,12.00
2022-10-24T23:54:13.669Z,12.00
2022-10-24T23:56:44.057Z,12.00
2022-10-24T23:59:15.158Z,11.90
